sensor_id;sensor_type;location;lat;lon;timestamp;P1;durP1;ratioP1;P2;durP2;ratioP2
42110;SDS011;27766;52.174;5.456;2023-07-16T00:01:35;5.88;;;1.42;;
42110;SDS011;27766;52.174;5.456;2023-07-16T00:04:02;5.55;;;1.40;;
42110;SDS011;27766;52.174;5.456;2023-07-16T00:06:29;4.53;;;1.75;;
42110;SDS011;27766;52.174;5.456;2023-07-16T00:08:57;4.45;;;1.58;;
42110;SDS011;27766;52.174;5.456;2023-07-16T00:11:24;7.38;;;1.92;;
42110;SDS011;27766;52.174;5.456;2023-07-16T00:13:51;3.70;;;1.35;;
42110;SDS011;27766;52.174;5.456;2023-07-16T00:16:18;4.03;;;1.63;;
42110;SDS011;27766;52.174;5.456;2023-07-16T00:18:46;5.90;;;1.60;;
42110;SDS011;27766;52.174;5.456;2023-07-16T00:21:13;6.85;;;1.90;;
42110;SDS011;27766;52.174;5.456;2023-07-16T00:23:41;5.95;;;1.77;;
42110;SDS011;27766;52.174;5.456;2023-07-16T00:26:08;3.90;;;1.55;;
42110;SDS011;27766;52.174;5.456;2023-07-16T00:28:35;7.22;;;1.77;;
42110;SDS011;27766;52.174;5.456;2023-07-16T00:31:02;3.72;;;1.63;;
42110;SDS011;27766;52.174;5.456;2023-07-16T00:33:30;5.55;;;1.65;;
42110;SDS011;27766;52.174;5.456;2023-07-16T00:35:57;3.90;;;1.73;;
42110;SDS011;27766;52.174;5.456;2023-07-16T00:38:24;12.65;;;2.28;;
42110;SDS011;27766;52.174;5.456;2023-07-16T00:40:52;7.93;;;1.85;;
42110;SDS011;27766;52.174;5.456;2023-07-16T00:43:19;4.43;;;1.98;;
42110;SDS011;27766;52.174;5.456;2023-07-16T00:45:46;6.35;;;1.85;;
42110;SDS011;27766;52.174;5.456;2023-07-16T00:48:14;6.00;;;2.03;;
42110;SDS011;27766;52.174;5.456;2023-07-16T00:50:41;4.40;;;1.77;;
42110;SDS011;27766;52.174;5.456;2023-07-16T00:53:09;4.10;;;1.95;;
42110;SDS011;27766;52.174;5.456;2023-07-16T00:55:37;4.28;;;2.63;;
42110;SDS011;27766;52.174;5.456;2023-07-16T00:58:06;3.97;;;1.75;;
42110;SDS011;27766;52.174;5.456;2023-07-16T01:00:34;3.25;;;1.73;;
42110;SDS011;27766;52.174;5.456;2023-07-16T01:03:07;11.10;;;1.83;;
42110;SDS011;27766;52.174;5.456;2023-07-16T01:08:27;4.88;;;1.75;;
42110;SDS011;27766;52.174;5.456;2023-07-16T01:11:01;7.10;;;2.17;;
42110;SDS011;27766;52.174;5.456;2023-07-16T01:13:31;4.13;;;2.08;;
42110;SDS011;27766;52.174;5.456;2023-07-16T01:15:59;3.53;;;1.92;;
42110;SDS011;27766;52.174;5.456;2023-07-16T01:18:26;2.47;;;1.50;;
42110;SDS011;27766;52.174;5.456;2023-07-16T01:20:53;3.08;;;1.88;;
42110;SDS011;27766;52.174;5.456;2023-07-16T01:31:25;8.30;;;2.22;;
42110;SDS011;27766;52.174;5.456;2023-07-16T01:33:53;3.17;;;2.00;;
42110;SDS011;27766;52.174;5.456;2023-07-16T01:36:23;5.75;;;2.50;;
42110;SDS011;27766;52.174;5.456;2023-07-16T01:38:51;8.77;;;1.90;;
42110;SDS011;27766;52.174;5.456;2023-07-16T01:41:19;5.32;;;2.17;;
42110;SDS011;27766;52.174;5.456;2023-07-16T01:43:47;7.10;;;2.40;;
42110;SDS011;27766;52.174;5.456;2023-07-16T01:46:14;6.88;;;1.98;;
42110;SDS011;27766;52.174;5.456;2023-07-16T01:48:42;4.68;;;2.58;;
42110;SDS011;27766;52.174;5.456;2023-07-16T01:51:09;4.68;;;1.70;;
42110;SDS011;27766;52.174;5.456;2023-07-16T01:53:38;7.63;;;2.35;;
42110;SDS011;27766;52.174;5.456;2023-07-16T01:56:05;3.50;;;1.80;;
42110;SDS011;27766;52.174;5.456;2023-07-16T01:58:33;7.15;;;2.17;;
42110;SDS011;27766;52.174;5.456;2023-07-16T02:01:00;8.63;;;2.45;;
42110;SDS011;27766;52.174;5.456;2023-07-16T02:03:27;4.47;;;2.42;;
42110;SDS011;27766;52.174;5.456;2023-07-16T02:05:55;6.13;;;2.38;;
42110;SDS011;27766;52.174;5.456;2023-07-16T02:08:22;5.53;;;2.00;;
42110;SDS011;27766;52.174;5.456;2023-07-16T02:10:49;6.03;;;2.40;;
42110;SDS011;27766;52.174;5.456;2023-07-16T02:13:17;5.47;;;2.38;;
42110;SDS011;27766;52.174;5.456;2023-07-16T02:15:44;5.95;;;2.67;;
42110;SDS011;27766;52.174;5.456;2023-07-16T02:18:12;7.18;;;2.75;;
42110;SDS011;27766;52.174;5.456;2023-07-16T02:20:39;4.03;;;2.40;;
42110;SDS011;27766;52.174;5.456;2023-07-16T02:23:06;3.75;;;2.30;;
42110;SDS011;27766;52.174;5.456;2023-07-16T02:25:34;7.05;;;2.95;;
42110;SDS011;27766;52.174;5.456;2023-07-16T02:28:01;8.10;;;3.22;;
42110;SDS011;27766;52.174;5.456;2023-07-16T02:30:29;4.72;;;2.53;;
42110;SDS011;27766;52.174;5.456;2023-07-16T02:32:56;13.15;;;2.95;;
42110;SDS011;27766;52.174;5.456;2023-07-16T02:35:23;6.60;;;2.47;;
42110;SDS011;27766;52.174;5.456;2023-07-16T02:37:51;6.68;;;3.10;;
42110;SDS011;27766;52.174;5.456;2023-07-16T02:40:18;5.57;;;3.03;;
42110;SDS011;27766;52.174;5.456;2023-07-16T02:42:45;5.38;;;3.50;;
42110;SDS011;27766;52.174;5.456;2023-07-16T02:45:13;7.00;;;3.08;;
42110;SDS011;27766;52.174;5.456;2023-07-16T02:47:40;9.40;;;3.20;;
42110;SDS011;27766;52.174;5.456;2023-07-16T02:50:08;6.35;;;3.47;;
42110;SDS011;27766;52.174;5.456;2023-07-16T02:52:35;8.50;;;3.47;;
42110;SDS011;27766;52.174;5.456;2023-07-16T02:55:03;9.57;;;3.38;;
42110;SDS011;27766;52.174;5.456;2023-07-16T02:57:30;6.07;;;2.70;;
42110;SDS011;27766;52.174;5.456;2023-07-16T02:59:58;11.10;;;3.40;;
42110;SDS011;27766;52.174;5.456;2023-07-16T03:02:25;10.82;;;2.90;;
42110;SDS011;27766;52.174;5.456;2023-07-16T03:04:52;7.13;;;3.33;;
42110;SDS011;27766;52.174;5.456;2023-07-16T03:07:20;4.63;;;3.03;;
42110;SDS011;27766;52.174;5.456;2023-07-16T03:09:47;6.22;;;2.67;;
42110;SDS011;27766;52.174;5.456;2023-07-16T03:12:15;5.28;;;2.42;;
42110;SDS011;27766;52.174;5.456;2023-07-16T03:14:42;7.53;;;2.78;;
42110;SDS011;27766;52.174;5.456;2023-07-16T03:17:10;6.88;;;3.05;;
42110;SDS011;27766;52.174;5.456;2023-07-16T03:19:37;6.07;;;2.25;;
42110;SDS011;27766;52.174;5.456;2023-07-16T03:22:05;6.35;;;3.10;;
42110;SDS011;27766;52.174;5.456;2023-07-16T03:24:32;5.35;;;2.50;;
42110;SDS011;27766;52.174;5.456;2023-07-16T03:26:59;4.38;;;2.55;;
42110;SDS011;27766;52.174;5.456;2023-07-16T03:29:38;8.25;;;2.65;;
42110;SDS011;27766;52.174;5.456;2023-07-16T03:32:06;5.13;;;2.78;;
42110;SDS011;27766;52.174;5.456;2023-07-16T03:34:33;5.70;;;2.92;;
42110;SDS011;27766;52.174;5.456;2023-07-16T03:37:00;8.88;;;3.03;;
42110;SDS011;27766;52.174;5.456;2023-07-16T03:39:28;4.80;;;2.58;;
42110;SDS011;27766;52.174;5.456;2023-07-16T03:41:55;3.55;;;2.65;;
42110;SDS011;27766;52.174;5.456;2023-07-16T03:44:22;7.88;;;2.30;;
42110;SDS011;27766;52.174;5.456;2023-07-16T03:46:49;8.55;;;2.72;;
42110;SDS011;27766;52.174;5.456;2023-07-16T03:49:17;5.80;;;2.95;;
42110;SDS011;27766;52.174;5.456;2023-07-16T03:51:44;5.38;;;2.78;;
42110;SDS011;27766;52.174;5.456;2023-07-16T03:54:11;5.50;;;2.80;;
42110;SDS011;27766;52.174;5.456;2023-07-16T03:56:39;6.45;;;3.10;;
42110;SDS011;27766;52.174;5.456;2023-07-16T03:59:06;9.82;;;2.38;;
42110;SDS011;27766;52.174;5.456;2023-07-16T04:01:33;9.15;;;3.38;;
42110;SDS011;27766;52.174;5.456;2023-07-16T04:04:01;5.03;;;2.42;;
42110;SDS011;27766;52.174;5.456;2023-07-16T04:06:28;5.20;;;2.10;;
42110;SDS011;27766;52.174;5.456;2023-07-16T04:08:55;5.22;;;2.67;;
42110;SDS011;27766;52.174;5.456;2023-07-16T04:11:22;4.38;;;2.50;;
42110;SDS011;27766;52.174;5.456;2023-07-16T04:13:50;11.25;;;2.75;;
42110;SDS011;27766;52.174;5.456;2023-07-16T04:16:17;6.47;;;2.72;;
42110;SDS011;27766;52.174;5.456;2023-07-16T04:18:45;4.63;;;2.63;;
42110;SDS011;27766;52.174;5.456;2023-07-16T04:21:12;5.50;;;2.80;;
42110;SDS011;27766;52.174;5.456;2023-07-16T04:23:40;6.45;;;2.67;;
42110;SDS011;27766;52.174;5.456;2023-07-16T04:26:07;5.78;;;3.03;;
42110;SDS011;27766;52.174;5.456;2023-07-16T04:28:34;12.77;;;3.28;;
42110;SDS011;27766;52.174;5.456;2023-07-16T04:31:02;10.35;;;3.33;;
42110;SDS011;27766;52.174;5.456;2023-07-16T04:33:29;6.30;;;3.58;;
42110;SDS011;27766;52.174;5.456;2023-07-16T04:35:56;7.82;;;3.13;;
42110;SDS011;27766;52.174;5.456;2023-07-16T04:38:23;6.15;;;3.20;;
42110;SDS011;27766;52.174;5.456;2023-07-16T04:40:51;6.75;;;3.45;;
42110;SDS011;27766;52.174;5.456;2023-07-16T04:43:18;5.90;;;2.90;;
42110;SDS011;27766;52.174;5.456;2023-07-16T04:45:46;5.45;;;3.13;;
42110;SDS011;27766;52.174;5.456;2023-07-16T04:48:14;11.68;;;3.88;;
42110;SDS011;27766;52.174;5.456;2023-07-16T04:50:41;7.47;;;3.65;;
42110;SDS011;27766;52.174;5.456;2023-07-16T04:53:09;7.65;;;3.53;;
42110;SDS011;27766;52.174;5.456;2023-07-16T04:55:37;9.38;;;3.80;;
42110;SDS011;27766;52.174;5.456;2023-07-16T04:58:06;6.95;;;3.50;;
42110;SDS011;27766;52.174;5.456;2023-07-16T05:00:33;7.93;;;3.75;;
42110;SDS011;27766;52.174;5.456;2023-07-16T05:03:01;6.25;;;2.92;;
42110;SDS011;27766;52.174;5.456;2023-07-16T05:05:28;8.65;;;3.20;;
42110;SDS011;27766;52.174;5.456;2023-07-16T05:07:55;6.07;;;2.80;;
42110;SDS011;27766;52.174;5.456;2023-07-16T05:10:23;5.18;;;3.35;;
42110;SDS011;27766;52.174;5.456;2023-07-16T05:12:50;10.07;;;3.75;;
42110;SDS011;27766;52.174;5.456;2023-07-16T05:15:18;5.95;;;3.42;;
42110;SDS011;27766;52.174;5.456;2023-07-16T05:17:45;5.13;;;3.25;;
42110;SDS011;27766;52.174;5.456;2023-07-16T05:20:12;6.63;;;3.05;;
42110;SDS011;27766;52.174;5.456;2023-07-16T05:22:40;16.75;;;4.18;;
42110;SDS011;27766;52.174;5.456;2023-07-16T05:25:07;8.60;;;3.33;;
42110;SDS011;27766;52.174;5.456;2023-07-16T05:27:35;6.45;;;3.33;;
42110;SDS011;27766;52.174;5.456;2023-07-16T05:30:02;6.82;;;3.10;;
42110;SDS011;27766;52.174;5.456;2023-07-16T05:32:30;6.95;;;3.78;;
42110;SDS011;27766;52.174;5.456;2023-07-16T05:34:57;5.05;;;3.10;;
42110;SDS011;27766;52.174;5.456;2023-07-16T05:37:27;11.93;;;3.85;;
42110;SDS011;27766;52.174;5.456;2023-07-16T05:39:54;7.03;;;3.80;;
42110;SDS011;27766;52.174;5.456;2023-07-16T05:42:22;7.80;;;3.53;;
42110;SDS011;27766;52.174;5.456;2023-07-16T05:44:49;8.93;;;3.88;;
42110;SDS011;27766;52.174;5.456;2023-07-16T05:47:16;8.27;;;3.55;;
42110;SDS011;27766;52.174;5.456;2023-07-16T05:49:43;7.75;;;3.55;;
42110;SDS011;27766;52.174;5.456;2023-07-16T05:52:12;8.52;;;3.97;;
42110;SDS011;27766;52.174;5.456;2023-07-16T05:54:39;7.43;;;4.07;;
42110;SDS011;27766;52.174;5.456;2023-07-16T05:57:06;7.40;;;3.70;;
42110;SDS011;27766;52.174;5.456;2023-07-16T05:59:34;6.80;;;3.55;;
42110;SDS011;27766;52.174;5.456;2023-07-16T06:02:03;6.70;;;4.15;;
42110;SDS011;27766;52.174;5.456;2023-07-16T06:04:31;6.13;;;3.97;;
42110;SDS011;27766;52.174;5.456;2023-07-16T06:06:59;8.90;;;3.95;;
42110;SDS011;27766;52.174;5.456;2023-07-16T06:09:26;5.18;;;3.55;;
42110;SDS011;27766;52.174;5.456;2023-07-16T06:11:53;8.90;;;4.07;;
42110;SDS011;27766;52.174;5.456;2023-07-16T06:14:20;6.07;;;3.63;;
42110;SDS011;27766;52.174;5.456;2023-07-16T06:16:48;8.00;;;4.07;;
42110;SDS011;27766;52.174;5.456;2023-07-16T06:19:15;6.80;;;3.75;;
42110;SDS011;27766;52.174;5.456;2023-07-16T06:21:43;9.32;;;3.53;;
42110;SDS011;27766;52.174;5.456;2023-07-16T06:24:10;6.78;;;4.05;;
42110;SDS011;27766;52.174;5.456;2023-07-16T06:26:40;8.85;;;4.03;;
42110;SDS011;27766;52.174;5.456;2023-07-16T06:29:07;9.02;;;4.20;;
42110;SDS011;27766;52.174;5.456;2023-07-16T06:31:34;6.88;;;3.63;;
42110;SDS011;27766;52.174;5.456;2023-07-16T06:34:02;4.88;;;3.05;;
42110;SDS011;27766;52.174;5.456;2023-07-16T06:36:29;8.32;;;3.67;;
42110;SDS011;27766;52.174;5.456;2023-07-16T06:38:56;9.43;;;3.75;;
42110;SDS011;27766;52.174;5.456;2023-07-16T06:41:23;5.25;;;3.40;;
42110;SDS011;27766;52.174;5.456;2023-07-16T06:43:51;6.25;;;3.78;;
42110;SDS011;27766;52.174;5.456;2023-07-16T06:46:18;5.97;;;3.38;;
42110;SDS011;27766;52.174;5.456;2023-07-16T06:48:46;6.75;;;3.67;;
42110;SDS011;27766;52.174;5.456;2023-07-16T06:51:13;7.65;;;4.03;;
42110;SDS011;27766;52.174;5.456;2023-07-16T06:53:41;8.07;;;3.78;;
42110;SDS011;27766;52.174;5.456;2023-07-16T06:56:08;8.20;;;4.35;;
42110;SDS011;27766;52.174;5.456;2023-07-16T06:58:35;10.98;;;4.50;;
42110;SDS011;27766;52.174;5.456;2023-07-16T07:01:03;7.90;;;3.90;;
42110;SDS011;27766;52.174;5.456;2023-07-16T07:03:30;7.57;;;3.55;;
42110;SDS011;27766;52.174;5.456;2023-07-16T07:06:03;7.47;;;4.30;;
42110;SDS011;27766;52.174;5.456;2023-07-16T07:08:33;9.93;;;4.00;;
42110;SDS011;27766;52.174;5.456;2023-07-16T07:11:00;7.78;;;3.85;;
42110;SDS011;27766;52.174;5.456;2023-07-16T07:13:27;6.07;;;3.40;;
42110;SDS011;27766;52.174;5.456;2023-07-16T07:15:56;8.48;;;3.67;;
42110;SDS011;27766;52.174;5.456;2023-07-16T07:18:24;7.65;;;3.72;;
42110;SDS011;27766;52.174;5.456;2023-07-16T07:20:51;5.57;;;3.50;;
42110;SDS011;27766;52.174;5.456;2023-07-16T07:23:19;9.02;;;4.32;;
42110;SDS011;27766;52.174;5.456;2023-07-16T07:25:49;10.23;;;4.15;;
42110;SDS011;27766;52.174;5.456;2023-07-16T07:28:21;6.63;;;3.65;;
42110;SDS011;27766;52.174;5.456;2023-07-16T07:30:48;5.50;;;3.60;;
42110;SDS011;27766;52.174;5.456;2023-07-16T07:33:15;6.60;;;3.35;;
42110;SDS011;27766;52.174;5.456;2023-07-16T07:35:43;6.15;;;3.15;;
42110;SDS011;27766;52.174;5.456;2023-07-16T07:38:10;5.70;;;3.45;;
42110;SDS011;27766;52.174;5.456;2023-07-16T07:40:38;8.70;;;3.83;;
42110;SDS011;27766;52.174;5.456;2023-07-16T07:43:05;7.18;;;3.85;;
42110;SDS011;27766;52.174;5.456;2023-07-16T07:45:32;13.32;;;4.35;;
42110;SDS011;27766;52.174;5.456;2023-07-16T07:48:00;8.25;;;4.15;;
42110;SDS011;27766;52.174;5.456;2023-07-16T07:50:27;6.00;;;3.75;;
42110;SDS011;27766;52.174;5.456;2023-07-16T07:52:56;8.27;;;3.90;;
42110;SDS011;27766;52.174;5.456;2023-07-16T07:55:23;6.55;;;4.20;;
42110;SDS011;27766;52.174;5.456;2023-07-16T07:57:50;5.53;;;3.67;;
42110;SDS011;27766;52.174;5.456;2023-07-16T08:00:17;12.45;;;3.95;;
42110;SDS011;27766;52.174;5.456;2023-07-16T08:02:48;10.68;;;3.88;;
42110;SDS011;27766;52.174;5.456;2023-07-16T08:05:18;8.60;;;3.70;;
42110;SDS011;27766;52.174;5.456;2023-07-16T08:07:46;6.50;;;3.25;;
42110;SDS011;27766;52.174;5.456;2023-07-16T08:10:14;7.45;;;3.67;;
42110;SDS011;27766;52.174;5.456;2023-07-16T08:12:42;11.05;;;3.75;;
42110;SDS011;27766;52.174;5.456;2023-07-16T08:15:10;8.90;;;3.97;;
42110;SDS011;27766;52.174;5.456;2023-07-16T08:17:43;7.63;;;4.28;;
42110;SDS011;27766;52.174;5.456;2023-07-16T08:20:12;7.78;;;3.33;;
42110;SDS011;27766;52.174;5.456;2023-07-16T08:22:39;8.80;;;3.85;;
42110;SDS011;27766;52.174;5.456;2023-07-16T08:25:07;8.75;;;4.07;;
42110;SDS011;27766;52.174;5.456;2023-07-16T08:27:35;10.93;;;4.10;;
42110;SDS011;27766;52.174;5.456;2023-07-16T08:30:02;7.22;;;4.13;;
42110;SDS011;27766;52.174;5.456;2023-07-16T08:32:29;6.03;;;3.90;;
42110;SDS011;27766;52.174;5.456;2023-07-16T08:34:57;13.38;;;4.15;;
42110;SDS011;27766;52.174;5.456;2023-07-16T08:37:24;6.40;;;3.38;;
42110;SDS011;27766;52.174;5.456;2023-07-16T08:39:52;7.57;;;4.18;;
42110;SDS011;27766;52.174;5.456;2023-07-16T08:42:22;6.32;;;3.83;;
42110;SDS011;27766;52.174;5.456;2023-07-16T08:44:50;10.18;;;4.70;;
42110;SDS011;27766;52.174;5.456;2023-07-16T08:47:19;9.50;;;3.60;;
42110;SDS011;27766;52.174;5.456;2023-07-16T08:49:55;8.45;;;4.15;;
42110;SDS011;27766;52.174;5.456;2023-07-16T08:52:23;7.05;;;3.95;;
42110;SDS011;27766;52.174;5.456;2023-07-16T08:54:53;6.38;;;3.65;;
42110;SDS011;27766;52.174;5.456;2023-07-16T08:57:21;8.25;;;3.50;;
42110;SDS011;27766;52.174;5.456;2023-07-16T08:59:50;7.82;;;3.63;;
42110;SDS011;27766;52.174;5.456;2023-07-16T09:02:18;9.70;;;4.78;;
42110;SDS011;27766;52.174;5.456;2023-07-16T09:04:46;8.13;;;3.90;;
42110;SDS011;27766;52.174;5.456;2023-07-16T09:07:15;6.72;;;4.47;;
42110;SDS011;27766;52.174;5.456;2023-07-16T09:09:43;7.53;;;4.38;;
42110;SDS011;27766;52.174;5.456;2023-07-16T09:12:24;10.55;;;4.03;;
42110;SDS011;27766;52.174;5.456;2023-07-16T09:14:52;4.82;;;3.30;;
42110;SDS011;27766;52.174;5.456;2023-07-16T09:17:20;7.00;;;4.50;;
42110;SDS011;27766;52.174;5.456;2023-07-16T09:19:52;6.82;;;4.82;;
42110;SDS011;27766;52.174;5.456;2023-07-16T09:22:20;6.40;;;4.38;;
42110;SDS011;27766;52.174;5.456;2023-07-16T09:24:48;6.82;;;3.65;;
42110;SDS011;27766;52.174;5.456;2023-07-16T09:27:18;7.40;;;4.05;;
42110;SDS011;27766;52.174;5.456;2023-07-16T09:29:46;6.68;;;3.40;;
42110;SDS011;27766;52.174;5.456;2023-07-16T09:32:14;6.50;;;3.75;;
42110;SDS011;27766;52.174;5.456;2023-07-16T09:34:45;15.00;;;4.07;;
42110;SDS011;27766;52.174;5.456;2023-07-16T09:37:17;5.95;;;3.90;;
42110;SDS011;27766;52.174;5.456;2023-07-16T09:39:46;8.60;;;4.13;;
42110;SDS011;27766;52.174;5.456;2023-07-16T09:42:13;6.95;;;4.05;;
42110;SDS011;27766;52.174;5.456;2023-07-16T09:44:48;7.38;;;4.28;;
42110;SDS011;27766;52.174;5.456;2023-07-16T09:47:18;6.55;;;3.47;;
42110;SDS011;27766;52.174;5.456;2023-07-16T09:49:46;6.45;;;3.53;;
42110;SDS011;27766;52.174;5.456;2023-07-16T09:52:14;8.68;;;4.20;;
42110;SDS011;27766;52.174;5.456;2023-07-16T09:54:43;12.13;;;3.53;;
42110;SDS011;27766;52.174;5.456;2023-07-16T09:57:13;7.07;;;3.67;;
42110;SDS011;27766;52.174;5.456;2023-07-16T09:59:42;8.93;;;3.67;;
42110;SDS011;27766;52.174;5.456;2023-07-16T10:02:13;5.22;;;3.17;;
42110;SDS011;27766;52.174;5.456;2023-07-16T10:04:42;11.05;;;3.53;;
42110;SDS011;27766;52.174;5.456;2023-07-16T10:07:22;8.18;;;3.88;;
42110;SDS011;27766;52.174;5.456;2023-07-16T10:09:52;5.35;;;3.67;;
42110;SDS011;27766;52.174;5.456;2023-07-16T10:12:26;4.97;;;3.45;;
42110;SDS011;27766;52.174;5.456;2023-07-16T10:14:54;6.00;;;3.97;;
42110;SDS011;27766;52.174;5.456;2023-07-16T10:17:29;6.95;;;3.85;;
42110;SDS011;27766;52.174;5.456;2023-07-16T10:20:02;9.05;;;3.63;;
42110;SDS011;27766;52.174;5.456;2023-07-16T10:27:49;8.88;;;3.53;;
42110;SDS011;27766;52.174;5.456;2023-07-16T10:30:19;5.85;;;3.92;;
42110;SDS011;27766;52.174;5.456;2023-07-16T10:32:47;9.18;;;3.60;;
42110;SDS011;27766;52.174;5.456;2023-07-16T10:35:14;8.63;;;3.28;;
42110;SDS011;27766;52.174;5.456;2023-07-16T10:37:42;5.90;;;4.07;;
42110;SDS011;27766;52.174;5.456;2023-07-16T10:40:10;6.82;;;3.72;;
42110;SDS011;27766;52.174;5.456;2023-07-16T10:42:42;4.85;;;3.20;;
42110;SDS011;27766;52.174;5.456;2023-07-16T10:45:11;6.57;;;3.05;;
42110;SDS011;27766;52.174;5.456;2023-07-16T10:47:50;6.10;;;3.63;;
42110;SDS011;27766;52.174;5.456;2023-07-16T10:50:20;4.65;;;3.30;;
42110;SDS011;27766;52.174;5.456;2023-07-16T10:52:50;4.82;;;3.35;;
42110;SDS011;27766;52.174;5.456;2023-07-16T10:55:21;5.60;;;3.75;;
42110;SDS011;27766;52.174;5.456;2023-07-16T10:57:50;4.80;;;3.30;;
42110;SDS011;27766;52.174;5.456;2023-07-16T11:00:18;6.45;;;3.00;;
42110;SDS011;27766;52.174;5.456;2023-07-16T11:02:45;5.72;;;3.30;;
42110;SDS011;27766;52.174;5.456;2023-07-16T11:05:14;3.95;;;2.80;;
42110;SDS011;27766;52.174;5.456;2023-07-16T11:07:49;5.47;;;3.40;;
42110;SDS011;27766;52.174;5.456;2023-07-16T11:10:20;5.00;;;3.42;;
42110;SDS011;27766;52.174;5.456;2023-07-16T11:12:51;5.63;;;2.90;;
42110;SDS011;27766;52.174;5.456;2023-07-16T11:15:32;11.25;;;2.88;;
42110;SDS011;27766;52.174;5.456;2023-07-16T11:18:01;5.07;;;2.90;;
42110;SDS011;27766;52.174;5.456;2023-07-16T11:20:29;6.65;;;2.97;;
42110;SDS011;27766;52.174;5.456;2023-07-16T11:22:59;5.32;;;3.80;;
42110;SDS011;27766;52.174;5.456;2023-07-16T11:25:28;4.40;;;2.72;;
42110;SDS011;27766;52.174;5.456;2023-07-16T11:27:55;5.32;;;3.28;;
42110;SDS011;27766;52.174;5.456;2023-07-16T11:30:24;7.70;;;3.17;;
42110;SDS011;27766;52.174;5.456;2023-07-16T11:32:52;5.20;;;3.28;;
42110;SDS011;27766;52.174;5.456;2023-07-16T11:35:20;8.15;;;3.28;;
42110;SDS011;27766;52.174;5.456;2023-07-16T11:37:48;7.03;;;3.13;;
42110;SDS011;27766;52.174;5.456;2023-07-16T11:40:16;8.25;;;3.08;;
42110;SDS011;27766;52.174;5.456;2023-07-16T11:42:45;4.47;;;2.45;;
42110;SDS011;27766;52.174;5.456;2023-07-16T11:47:48;3.53;;;2.58;;
42110;SDS011;27766;52.174;5.456;2023-07-16T11:50:16;6.10;;;3.20;;
42110;SDS011;27766;52.174;5.456;2023-07-16T11:52:54;6.50;;;3.15;;
42110;SDS011;27766;52.174;5.456;2023-07-16T11:55:22;4.30;;;2.25;;
42110;SDS011;27766;52.174;5.456;2023-07-16T11:57:50;3.92;;;2.10;;
42110;SDS011;27766;52.174;5.456;2023-07-16T12:00:17;5.90;;;2.75;;
42110;SDS011;27766;52.174;5.456;2023-07-16T12:02:46;7.53;;;2.50;;
42110;SDS011;27766;52.174;5.456;2023-07-16T12:05:19;5.13;;;1.40;;
42110;SDS011;27766;52.174;5.456;2023-07-16T12:07:52;3.63;;;1.92;;
42110;SDS011;27766;52.174;5.456;2023-07-16T12:10:19;2.45;;;1.25;;
42110;SDS011;27766;52.174;5.456;2023-07-16T12:12:47;1.77;;;1.17;;
42110;SDS011;27766;52.174;5.456;2023-07-16T12:15:14;2.30;;;1.65;;
42110;SDS011;27766;52.174;5.456;2023-07-16T12:17:42;3.60;;;1.38;;
42110;SDS011;27766;52.174;5.456;2023-07-16T12:20:09;3.38;;;1.52;;
42110;SDS011;27766;52.174;5.456;2023-07-16T12:22:37;7.38;;;1.52;;
42110;SDS011;27766;52.174;5.456;2023-07-16T12:25:04;3.63;;;1.50;;
42110;SDS011;27766;52.174;5.456;2023-07-16T12:27:32;2.88;;;1.08;;
42110;SDS011;27766;52.174;5.456;2023-07-16T12:29:59;3.67;;;1.45;;
42110;SDS011;27766;52.174;5.456;2023-07-16T12:32:26;3.58;;;1.90;;
42110;SDS011;27766;52.174;5.456;2023-07-16T12:34:54;5.30;;;1.50;;
42110;SDS011;27766;52.174;5.456;2023-07-16T12:37:22;2.03;;;1.10;;
42110;SDS011;27766;52.174;5.456;2023-07-16T12:39:49;3.67;;;1.20;;
42110;SDS011;27766;52.174;5.456;2023-07-16T12:42:17;2.33;;;0.98;;
42110;SDS011;27766;52.174;5.456;2023-07-16T12:44:44;2.55;;;1.15;;
42110;SDS011;27766;52.174;5.456;2023-07-16T12:47:12;2.05;;;1.15;;
42110;SDS011;27766;52.174;5.456;2023-07-16T12:49:39;1.45;;;1.05;;
42110;SDS011;27766;52.174;5.456;2023-07-16T12:52:06;1.88;;;1.45;;
42110;SDS011;27766;52.174;5.456;2023-07-16T12:54:34;1.90;;;1.20;;
42110;SDS011;27766;52.174;5.456;2023-07-16T12:57:02;2.13;;;1.20;;
42110;SDS011;27766;52.174;5.456;2023-07-16T12:59:29;3.33;;;1.50;;
42110;SDS011;27766;52.174;5.456;2023-07-16T13:01:57;4.85;;;1.25;;
42110;SDS011;27766;52.174;5.456;2023-07-16T13:04:24;3.20;;;1.38;;
42110;SDS011;27766;52.174;5.456;2023-07-16T13:06:52;1.67;;;1.20;;
42110;SDS011;27766;52.174;5.456;2023-07-16T13:09:19;2.45;;;1.27;;
42110;SDS011;27766;52.174;5.456;2023-07-16T13:11:46;2.38;;;1.10;;
42110;SDS011;27766;52.174;5.456;2023-07-16T13:14:14;4.00;;;1.35;;
42110;SDS011;27766;52.174;5.456;2023-07-16T13:16:43;5.00;;;1.65;;
42110;SDS011;27766;52.174;5.456;2023-07-16T13:19:11;2.83;;;1.25;;
42110;SDS011;27766;52.174;5.456;2023-07-16T13:21:38;5.63;;;1.55;;
42110;SDS011;27766;52.174;5.456;2023-07-16T13:24:05;2.63;;;1.02;;
42110;SDS011;27766;52.174;5.456;2023-07-16T13:26:33;3.38;;;1.15;;
42110;SDS011;27766;52.174;5.456;2023-07-16T13:29:00;9.18;;;1.27;;
42110;SDS011;27766;52.174;5.456;2023-07-16T13:31:27;2.15;;;0.73;;
42110;SDS011;27766;52.174;5.456;2023-07-16T13:33:55;1.70;;;1.00;;
42110;SDS011;27766;52.174;5.456;2023-07-16T13:36:22;2.50;;;1.13;;
42110;SDS011;27766;52.174;5.456;2023-07-16T13:38:50;4.95;;;1.13;;
42110;SDS011;27766;52.174;5.456;2023-07-16T13:41:17;3.90;;;1.30;;
42110;SDS011;27766;52.174;5.456;2023-07-16T13:43:45;4.57;;;1.20;;
42110;SDS011;27766;52.174;5.456;2023-07-16T13:46:13;1.42;;;1.02;;
42110;SDS011;27766;52.174;5.456;2023-07-16T13:48:40;7.00;;;1.02;;
42110;SDS011;27766;52.174;5.456;2023-07-16T13:51:23;1.58;;;0.95;;
42110;SDS011;27766;52.174;5.456;2023-07-16T13:53:50;4.32;;;1.02;;
42110;SDS011;27766;52.174;5.456;2023-07-16T13:56:18;5.32;;;1.30;;
42110;SDS011;27766;52.174;5.456;2023-07-16T13:58:46;5.45;;;1.35;;
42110;SDS011;27766;52.174;5.456;2023-07-16T14:01:14;2.67;;;1.00;;
42110;SDS011;27766;52.174;5.456;2023-07-16T14:03:43;1.52;;;0.80;;
42110;SDS011;27766;52.174;5.456;2023-07-16T14:06:11;3.15;;;1.15;;
42110;SDS011;27766;52.174;5.456;2023-07-16T14:08:38;5.20;;;0.80;;
42110;SDS011;27766;52.174;5.456;2023-07-16T14:11:05;2.38;;;0.95;;
42110;SDS011;27766;52.174;5.456;2023-07-16T14:13:33;5.57;;;0.65;;
42110;SDS011;27766;52.174;5.456;2023-07-16T14:16:00;1.02;;;0.73;;
42110;SDS011;27766;52.174;5.456;2023-07-16T14:18:27;2.25;;;0.88;;
42110;SDS011;27766;52.174;5.456;2023-07-16T14:20:54;3.40;;;1.08;;
42110;SDS011;27766;52.174;5.456;2023-07-16T14:23:22;4.13;;;1.10;;
42110;SDS011;27766;52.174;5.456;2023-07-16T14:25:50;1.58;;;0.82;;
42110;SDS011;27766;52.174;5.456;2023-07-16T14:28:18;2.20;;;0.80;;
42110;SDS011;27766;52.174;5.456;2023-07-16T14:30:45;2.17;;;1.00;;
42110;SDS011;27766;52.174;5.456;2023-07-16T14:33:13;2.55;;;1.05;;
42110;SDS011;27766;52.174;5.456;2023-07-16T14:35:40;1.73;;;0.80;;
42110;SDS011;27766;52.174;5.456;2023-07-16T14:38:07;2.13;;;0.95;;
42110;SDS011;27766;52.174;5.456;2023-07-16T14:40:35;4.03;;;0.90;;
42110;SDS011;27766;52.174;5.456;2023-07-16T14:43:04;2.35;;;0.85;;
42110;SDS011;27766;52.174;5.456;2023-07-16T14:45:33;2.78;;;1.08;;
42110;SDS011;27766;52.174;5.456;2023-07-16T14:48:01;3.67;;;1.15;;
42110;SDS011;27766;52.174;5.456;2023-07-16T14:50:31;3.30;;;1.05;;
42110;SDS011;27766;52.174;5.456;2023-07-16T14:52:58;2.80;;;1.05;;
42110;SDS011;27766;52.174;5.456;2023-07-16T14:55:25;1.30;;;0.77;;
42110;SDS011;27766;52.174;5.456;2023-07-16T14:57:53;1.75;;;0.73;;
42110;SDS011;27766;52.174;5.456;2023-07-16T15:00:21;2.78;;;0.98;;
42110;SDS011;27766;52.174;5.456;2023-07-16T15:02:49;1.83;;;0.80;;
42110;SDS011;27766;52.174;5.456;2023-07-16T15:05:17;3.05;;;0.80;;
42110;SDS011;27766;52.174;5.456;2023-07-16T15:07:48;2.65;;;0.98;;
42110;SDS011;27766;52.174;5.456;2023-07-16T15:10:18;4.15;;;1.05;;